createdAt,value
2023-04-15T00:01:19.836Z,7.72
2023-04-15T00:03:48.544Z,7.62
2023-04-15T00:06:17.060Z,7.57
2023-04-15T00:08:45.201Z,7.64
2023-04-15T00:11:13.541Z,7.69
2023-04-15T00:13:42.704Z,7.71
2023-04-15T00:16:12.330Z,7.63
2023-04-15T00:18:42.227Z,7.72
2023-04-15T00:21:10.574Z,7.65
2023-04-15T00:23:38.780Z,7.68
2023-04-15T00:26:07.434Z,7.63
2023-04-15T00:28:35.600Z,7.65
2023-04-15T00:31:04.882Z,7.61
2023-04-15T00:33:33.393Z,7.65
2023-04-15T00:36:02.871Z,7.71
2023-04-15T00:38:31.048Z,7.80
2023-04-15T00:40:59.524Z,7.67
2023-04-15T00:43:29.684Z,7.81
2023-04-15T00:45:59.873Z,7.85
2023-04-15T00:48:28.436Z,7.75
2023-04-15T00:50:56.770Z,7.84
2023-04-15T00:53:26.450Z,7.93
2023-04-15T00:55:55.212Z,7.78
2023-04-15T00:58:24.025Z,7.84
2023-04-15T01:00:54.630Z,7.82
2023-04-15T01:03:23.076Z,7.78
2023-04-15T01:05:52.930Z,7.88
2023-04-15T01:08:21.127Z,7.87
2023-04-15T01:10:50.721Z,7.93
2023-04-15T01:13:18.845Z,7.97
2023-04-15T01:15:47.206Z,7.90
2023-04-15T01:18:15.596Z,7.85
2023-04-15T01:20:43.775Z,7.87
2023-04-15T01:23:12.112Z,7.72
2023-04-15T01:25:43.074Z,7.86
2023-04-15T01:28:11.288Z,7.83
2023-04-15T01:30:39.777Z,7.91
2023-04-15T01:33:07.904Z,7.89
2023-04-15T01:35:36.374Z,7.92
2023-04-15T01:38:07.757Z,7.97
2023-04-15T01:40:36.561Z,7.87
2023-04-15T01:43:06.132Z,7.99
2023-04-15T01:45:34.281Z,7.87
2023-04-15T01:48:05.810Z,8.04
2023-04-15T01:50:34.095Z,8.10
2023-04-15T01:53:02.234Z,8.06
2023-04-15T01:55:30.896Z,7.99
2023-04-15T01:57:59.059Z,8.01
2023-04-15T02:00:28.567Z,8.07
2023-04-15T02:02:57.050Z,8.15
2023-04-15T02:05:27.754Z,8.00
2023-04-15T02:07:55.906Z,7.93
2023-04-15T02:10:24.196Z,8.02
2023-04-15T02:12:52.428Z,7.96
2023-04-15T02:15:20.824Z,7.97
2023-04-15T02:17:55.331Z,7.80
2023-04-15T02:20:23.632Z,8.08
2023-04-15T02:22:52.270Z,8.03
2023-04-15T02:25:20.996Z,8.08
2023-04-15T02:27:49.340Z,7.96
2023-04-15T02:30:18.644Z,8.07
2023-04-15T02:32:47.160Z,7.93
2023-04-15T02:35:19.139Z,7.98
2023-04-15T02:37:47.271Z,8.14
2023-04-15T02:40:15.631Z,7.97
2023-04-15T02:42:44.312Z,8.08
2023-04-15T02:45:14.758Z,8.07
2023-04-15T02:47:44.497Z,8.03
2023-04-15T02:50:15.129Z,8.02
2023-04-15T02:52:45.842Z,8.01
2023-04-15T02:55:14.120Z,8.12
2023-04-15T02:57:42.703Z,8.17
2023-04-15T03:00:13.435Z,8.02
2023-04-15T03:02:44.332Z,8.00
2023-04-15T03:05:14.067Z,7.99
2023-04-15T03:07:50.062Z,7.96
2023-04-15T03:10:18.510Z,8.01
2023-04-15T03:12:48.152Z,7.99
2023-04-15T03:15:19.833Z,7.97
2023-04-15T03:17:51.257Z,8.06
2023-04-15T03:20:19.740Z,8.10
2023-04-15T03:22:50.919Z,8.10
2023-04-15T03:25:21.608Z,8.08
2023-04-15T03:27:49.836Z,8.04
2023-04-15T03:30:18.687Z,8.06
2023-04-15T03:32:47.511Z,8.03
2023-04-15T03:35:16.449Z,8.22
2023-04-15T03:37:44.760Z,8.16
2023-04-15T03:40:14.536Z,8.39
2023-04-15T03:42:42.736Z,8.18
2023-04-15T03:45:11.901Z,8.22
2023-04-15T03:47:40.080Z,8.12
2023-04-15T03:50:09.235Z,8.08
2023-04-15T03:52:37.730Z,8.17
2023-04-15T03:55:06.653Z,8.13
2023-04-15T03:57:38.961Z,8.21
2023-04-15T04:00:09.298Z,8.29
2023-04-15T04:02:40.206Z,8.26
2023-04-15T04:05:09.215Z,8.22
2023-04-15T04:07:37.601Z,8.02
2023-04-15T04:10:06.619Z,7.89
2023-04-15T04:12:36.320Z,8.13
2023-04-15T04:15:04.863Z,8.26
2023-04-15T04:17:33.099Z,8.20
2023-04-15T04:20:01.271Z,8.08
2023-04-15T04:22:29.449Z,8.14
2023-04-15T04:24:59.389Z,8.10
2023-04-15T04:27:27.540Z,8.14
2023-04-15T04:29:57.028Z,8.25
2023-04-15T04:32:25.215Z,8.22
2023-04-15T04:34:53.351Z,8.22
2023-04-15T04:37:21.461Z,8.12
2023-04-15T04:39:49.628Z,8.24
2023-04-15T04:42:17.792Z,8.31
2023-04-15T04:44:46.411Z,8.38
2023-04-15T04:47:16.027Z,8.32
2023-04-15T04:49:44.189Z,8.29
2023-04-15T04:52:12.918Z,8.32
2023-04-15T04:54:41.060Z,8.39
2023-04-15T04:57:09.232Z,8.36
2023-04-15T04:59:38.082Z,8.46
2023-04-15T05:02:06.631Z,8.34
2023-04-15T05:04:37.214Z,8.52
2023-04-15T05:07:05.362Z,8.48
2023-04-15T05:09:36.172Z,8.50
2023-04-15T05:12:04.982Z,8.53
2023-04-15T05:14:33.309Z,8.52
2023-04-15T05:17:01.522Z,8.39
2023-04-15T05:19:29.671Z,8.54
2023-04-15T05:21:59.147Z,8.58
2023-04-15T05:24:27.399Z,8.59
2023-04-15T05:26:56.213Z,8.62
2023-04-15T05:29:24.488Z,8.49
2023-04-15T05:31:52.659Z,8.66
2023-04-15T05:34:20.787Z,8.77
2023-04-15T05:36:49.000Z,8.56
2023-04-15T05:39:18.444Z,8.67
2023-04-15T05:41:46.689Z,8.58
2023-04-15T05:44:14.858Z,8.52
2023-04-15T05:46:43.339Z,8.57
2023-04-15T05:49:12.036Z,8.68
2023-04-15T05:51:40.240Z,8.77
2023-04-15T05:54:08.393Z,8.69
2023-04-15T05:56:37.997Z,8.71
2023-04-15T05:59:06.620Z,8.87
2023-04-15T06:01:35.561Z,8.66
2023-04-15T06:04:03.758Z,8.87
2023-04-15T06:06:32.479Z,8.75
2023-04-15T06:09:00.789Z,8.78
2023-04-15T06:11:29.209Z,8.74
2023-04-15T06:13:59.042Z,8.82
2023-04-15T06:16:27.339Z,8.76
2023-04-15T06:18:55.471Z,8.82
2023-04-15T06:21:23.645Z,8.73
2023-04-15T06:23:51.850Z,8.77
2023-04-15T06:26:19.985Z,8.73
2023-04-15T06:28:48.231Z,8.89
2023-04-15T06:31:17.742Z,8.83
2023-04-15T06:33:45.973Z,8.91
2023-04-15T06:36:14.146Z,8.78
2023-04-15T06:38:42.339Z,8.83
2023-04-15T06:41:10.755Z,8.73
2023-04-15T06:43:39.350Z,8.74
2023-04-15T06:46:07.510Z,8.76
2023-04-15T06:48:37.262Z,8.77
2023-04-15T06:51:05.604Z,8.70
2023-04-15T06:53:33.918Z,8.71
2023-04-15T06:56:02.052Z,8.60
2023-04-15T06:58:30.201Z,8.67
2023-04-15T07:00:58.345Z,8.75
2023-04-15T07:03:27.110Z,8.72
2023-04-15T07:05:56.576Z,8.63
2023-04-15T07:08:25.626Z,8.63
2023-04-15T07:10:54.160Z,8.66
2023-04-15T07:13:22.636Z,8.56
2023-04-15T07:15:50.811Z,8.66
2023-04-15T07:18:18.951Z,8.58
2023-04-15T07:20:47.077Z,8.61
2023-04-15T07:23:16.606Z,8.65
2023-04-15T07:25:44.752Z,8.66
2023-04-15T07:28:12.885Z,8.62
2023-04-15T07:30:41.639Z,8.68
2023-04-15T07:33:10.039Z,8.64
2023-04-15T07:35:38.201Z,8.74
2023-04-15T07:38:06.890Z,8.63
2023-04-15T07:40:36.382Z,8.70
2023-04-15T07:43:04.623Z,8.70
2023-04-15T07:45:32.903Z,8.77
2023-04-15T07:48:01.778Z,8.72
2023-04-15T07:50:29.974Z,8.73
2023-04-15T07:52:58.445Z,8.66
2023-04-15T07:55:28.151Z,8.81
2023-04-15T07:57:57.763Z,8.77
2023-04-15T08:00:26.834Z,8.71
2023-04-15T08:02:57.412Z,8.78
2023-04-15T08:05:25.780Z,8.66
2023-04-15T08:07:54.043Z,8.69
2023-04-15T08:10:22.813Z,8.77
2023-04-15T08:12:54.245Z,8.87
2023-04-15T08:15:23.966Z,8.94
2023-04-15T08:17:52.264Z,8.72
2023-04-15T08:20:20.668Z,8.79
2023-04-15T08:22:52.563Z,8.78
2023-04-15T08:25:21.519Z,8.82
2023-04-15T08:27:49.709Z,8.82
2023-04-15T08:30:17.889Z,8.79
2023-04-15T08:32:48.136Z,8.78
2023-04-15T08:35:16.491Z,8.91
2023-04-15T08:37:44.624Z,8.89
2023-04-15T08:40:13.619Z,8.85
2023-04-15T08:42:45.655Z,8.85
2023-04-15T08:45:14.578Z,8.89
2023-04-15T08:47:44.590Z,8.91
2023-04-15T08:50:16.167Z,8.97
2023-04-15T08:52:44.428Z,9.06
2023-04-15T08:55:14.438Z,9.19
2023-04-15T08:57:42.600Z,9.09
2023-04-15T09:00:12.484Z,9.05
2023-04-15T09:02:41.517Z,9.05
2023-04-15T09:05:10.138Z,8.98
2023-04-15T09:07:39.593Z,8.98
2023-04-15T09:10:09.050Z,9.05
2023-04-15T09:12:37.579Z,8.95
2023-04-15T09:15:06.679Z,9.00
2023-04-15T09:17:35.629Z,9.05
2023-04-15T09:20:13.008Z,9.08
2023-04-15T09:22:43.226Z,9.08
2023-04-15T09:25:28.033Z,9.12
2023-04-15T09:27:57.520Z,9.10
2023-04-15T09:30:26.536Z,8.98
2023-04-15T09:32:56.711Z,9.06
2023-04-15T09:35:26.228Z,9.13
2023-04-15T09:38:03.936Z,9.12
2023-04-15T09:40:32.726Z,9.15
2023-04-15T09:43:01.978Z,9.18
2023-04-15T09:45:30.631Z,9.20
2023-04-15T09:47:59.738Z,9.12
2023-04-15T09:50:29.422Z,9.09
2023-04-15T09:52:59.649Z,9.15
2023-04-15T09:55:27.788Z,9.15
2023-04-15T09:57:55.925Z,9.13
2023-04-15T10:00:24.040Z,9.13
2023-04-15T10:02:53.296Z,9.10
2023-04-15T10:05:23.419Z,9.16
2023-04-15T10:07:51.681Z,9.10
2023-04-15T10:10:21.556Z,9.15
2023-04-15T10:12:50.888Z,9.11
2023-04-15T10:15:20.075Z,9.17
2023-04-15T10:17:51.383Z,9.15
2023-04-15T10:20:20.700Z,9.22
2023-04-15T10:22:49.744Z,9.28
2023-04-15T10:25:18.392Z,9.28
2023-04-15T10:27:49.509Z,9.24
2023-04-15T10:30:18.687Z,9.26
2023-04-15T10:32:47.402Z,9.33
2023-04-15T10:35:16.308Z,9.31
2023-04-15T10:37:44.459Z,9.27
2023-04-15T10:40:27.349Z,9.29
2023-04-15T10:42:57.387Z,9.28
2023-04-15T10:45:28.244Z,9.36
2023-04-15T10:47:58.142Z,9.42
2023-04-15T10:50:29.907Z,9.44
2023-04-15T10:52:58.561Z,9.43
2023-04-15T10:55:28.156Z,9.40
2023-04-15T10:58:01.476Z,9.25
2023-04-15T11:00:30.835Z,9.26
2023-04-15T11:03:01.273Z,9.25
2023-04-15T11:05:53.706Z,9.23
2023-04-15T11:08:54.621Z,9.29
2023-04-15T11:11:22.863Z,9.31
2023-04-15T11:13:54.203Z,9.34
2023-04-15T11:16:23.082Z,9.35
2023-04-15T11:18:55.948Z,9.34
2023-04-15T11:21:27.024Z,9.34
2023-04-15T11:23:55.145Z,9.46
2023-04-15T11:26:28.046Z,9.38
2023-04-15T11:28:59.775Z,9.41
2023-04-15T11:31:29.538Z,9.40
2023-04-15T11:33:59.906Z,9.40
2023-04-15T11:36:29.734Z,9.41
2023-04-15T11:38:59.781Z,9.41
2023-04-15T11:41:27.922Z,9.46
2023-04-15T11:43:57.454Z,9.53
2023-04-15T11:46:31.254Z,9.46
2023-04-15T11:49:00.214Z,9.61
2023-04-15T11:51:33.604Z,9.64
2023-04-15T11:54:01.923Z,9.67
2023-04-15T11:56:30.287Z,9.63
2023-04-15T11:59:00.518Z,9.63
2023-04-15T12:01:35.121Z,9.61
2023-04-15T12:04:04.570Z,9.67
2023-04-15T12:06:35.054Z,9.80
2023-04-15T12:09:09.310Z,9.89
2023-04-15T12:11:43.438Z,10.02
2023-04-15T12:14:17.020Z,9.99
2023-04-15T12:16:48.759Z,9.90
2023-04-15T12:19:23.521Z,10.04
2023-04-15T12:21:52.280Z,10.01
2023-04-15T12:24:23.243Z,10.08
2023-04-15T12:26:53.189Z,9.99
2023-04-15T12:29:29.016Z,9.95
2023-04-15T12:31:59.004Z,9.88
2023-04-15T12:34:29.504Z,9.87
2023-04-15T12:36:59.699Z,10.01
2023-04-15T12:39:31.206Z,10.06
2023-04-15T12:42:00.534Z,9.99
2023-04-15T12:44:30.250Z,10.10
2023-04-15T12:46:58.753Z,10.08
2023-04-15T12:49:27.642Z,9.98
2023-04-15T12:51:57.465Z,9.99
2023-04-15T12:54:25.595Z,9.98
2023-04-15T12:56:54.186Z,10.12
2023-04-15T12:59:24.051Z,10.03
2023-04-15T13:01:54.627Z,10.18
2023-04-15T13:04:23.525Z,9.99
2023-04-15T13:06:51.784Z,10.02
2023-04-15T13:09:19.928Z,10.12
2023-04-15T13:11:48.098Z,10.05
2023-04-15T13:14:16.346Z,10.05
2023-04-15T13:16:44.476Z,9.96
2023-04-15T13:19:14.332Z,10.06
2023-04-15T13:21:42.556Z,10.26
2023-04-15T13:24:11.767Z,10.19
2023-04-15T13:26:39.906Z,10.13
2023-04-15T13:29:08.114Z,10.14
2023-04-15T13:31:36.497Z,10.30
2023-04-15T13:34:04.960Z,10.23
2023-04-15T13:36:34.652Z,10.41
2023-04-15T13:39:03.262Z,10.44
2023-04-15T13:41:32.200Z,10.47
2023-04-15T13:44:00.588Z,10.47
2023-04-15T13:46:28.715Z,10.55
2023-04-15T13:48:57.686Z,10.58
2023-04-15T13:51:29.607Z,10.54
2023-04-15T13:53:59.225Z,10.80
2023-04-15T13:56:27.370Z,10.73
2023-04-15T13:58:58.912Z,10.66
2023-04-15T14:01:27.299Z,10.59
2023-04-15T14:03:55.794Z,10.56
2023-04-15T14:06:24.064Z,10.58
2023-04-15T14:08:53.004Z,10.65
2023-04-15T14:11:22.576Z,10.50
2023-04-15T14:13:50.711Z,10.53
2023-04-15T14:16:18.911Z,10.61
2023-04-15T14:18:47.140Z,10.46
2023-04-15T14:21:15.299Z,10.66
2023-04-15T14:23:43.870Z,10.61
2023-04-15T14:26:12.065Z,10.60
2023-04-15T14:28:42.847Z,10.56
2023-04-15T14:31:11.081Z,10.61
2023-04-15T14:33:39.314Z,10.56
2023-04-15T14:36:08.132Z,10.59
2023-04-15T14:38:38.454Z,10.63
2023-04-15T14:41:07.225Z,10.62
2023-04-15T14:43:35.861Z,10.55
2023-04-15T14:46:05.533Z,10.63
2023-04-15T14:48:33.721Z,10.70
2023-04-15T14:51:02.189Z,10.56
2023-04-15T14:53:30.366Z,10.66
2023-04-15T14:55:58.555Z,10.60
2023-04-15T14:58:35.389Z,10.57
2023-04-15T15:01:04.756Z,10.56
2023-04-15T15:03:33.316Z,10.67
2023-04-15T15:06:01.568Z,10.62
2023-04-15T15:08:30.053Z,10.55
2023-04-15T15:10:58.196Z,10.65
2023-04-15T15:13:26.377Z,10.55
2023-04-15T15:15:56.134Z,10.62
2023-04-15T15:18:25.507Z,10.68
2023-04-15T15:20:53.674Z,10.64
2023-04-15T15:23:22.008Z,10.71
2023-04-15T15:25:50.338Z,10.68
2023-04-15T15:28:18.507Z,10.58
2023-04-15T15:30:46.632Z,10.76
2023-04-15T15:33:16.128Z,10.71
2023-04-15T15:35:45.079Z,10.62
2023-04-15T15:38:13.529Z,10.63
2023-04-15T15:40:41.698Z,10.49
2023-04-15T15:43:09.930Z,10.50
2023-04-15T15:45:38.068Z,10.48
2023-04-15T15:48:07.428Z,10.37
2023-04-15T15:50:37.019Z,10.46
2023-04-15T15:53:05.353Z,10.43
2023-04-15T15:55:33.756Z,10.36
2023-04-15T15:58:01.873Z,10.38
2023-04-15T16:00:30.038Z,10.37
2023-04-15T16:05:29.392Z,10.41
2023-04-15T16:07:58.902Z,10.44
2023-04-15T16:10:27.603Z,10.41
2023-04-15T16:12:55.808Z,10.46
2023-04-15T16:15:24.253Z,10.36
2023-04-15T16:17:52.461Z,10.28
2023-04-15T16:20:20.669Z,10.31
2023-04-15T16:22:49.003Z,10.35
2023-04-15T16:25:18.917Z,10.36
2023-04-15T16:28:00.812Z,10.53
2023-04-15T16:30:31.574Z,10.21
2023-04-15T16:32:59.757Z,10.32
2023-04-15T16:35:28.398Z,10.39
2023-04-15T16:37:56.583Z,10.31
2023-04-15T16:40:26.567Z,10.41
2023-04-15T16:42:55.776Z,10.39
2023-04-15T16:45:23.912Z,10.27
2023-04-15T16:47:52.077Z,10.38
2023-04-15T16:50:20.466Z,10.30
2023-04-15T16:52:48.648Z,10.26
2023-04-15T16:55:16.778Z,10.19
2023-04-15T16:58:01.186Z,10.11
2023-04-15T17:00:31.408Z,10.17
2023-04-15T17:03:00.230Z,10.26
2023-04-15T17:05:29.162Z,10.23
2023-04-15T17:07:57.406Z,10.08
2023-04-15T17:10:25.827Z,10.04
2023-04-15T17:12:56.879Z,10.14
2023-04-15T17:15:25.452Z,9.96
2023-04-15T17:17:53.794Z,10.06
2023-04-15T17:20:22.054Z,10.06
2023-04-15T17:22:50.362Z,10.11
2023-04-15T17:25:19.416Z,10.11
2023-04-15T17:27:47.720Z,9.99
2023-04-15T17:30:17.449Z,9.89
2023-04-15T17:32:45.862Z,9.88
2023-04-15T17:35:14.066Z,9.91
2023-04-15T17:37:42.204Z,9.93
2023-04-15T17:40:11.356Z,9.73
2023-04-15T17:42:39.531Z,9.96
2023-04-15T17:45:08.951Z,9.93
2023-04-15T17:47:38.488Z,9.95
2023-04-15T17:50:08.381Z,9.84
2023-04-15T17:52:36.649Z,9.90
2023-04-15T17:55:05.281Z,9.80
2023-04-15T17:57:33.446Z,9.87
2023-04-15T18:00:01.730Z,10.00
2023-04-15T18:02:29.984Z,9.86
2023-04-15T18:04:59.622Z,9.78
2023-04-15T18:07:27.878Z,9.94
2023-04-15T18:09:56.360Z,9.94
2023-04-15T18:12:24.580Z,9.92
2023-04-15T18:14:52.814Z,9.94
2023-04-15T18:17:21.226Z,9.72
2023-04-15T18:19:49.355Z,9.77
2023-04-15T18:22:18.862Z,9.71
2023-04-15T18:24:46.986Z,9.75
2023-04-15T18:27:15.134Z,9.86
2023-04-15T18:29:44.015Z,9.83
2023-04-15T18:32:12.152Z,9.82
2023-04-15T18:34:42.775Z,9.61
2023-04-15T18:37:11.087Z,9.61
2023-04-15T18:39:40.631Z,9.56
2023-04-15T18:42:08.797Z,9.49
2023-04-15T18:44:36.954Z,9.62
2023-04-15T18:47:05.312Z,9.68
2023-04-15T18:49:33.997Z,9.65
2023-04-15T18:52:02.391Z,9.59
2023-04-15T18:54:30.690Z,9.65
2023-04-15T18:57:00.323Z,9.63
2023-04-15T18:59:30.074Z,9.53
2023-04-15T19:01:59.301Z,9.47
2023-04-15T19:04:28.810Z,9.43
2023-04-15T19:06:58.773Z,9.38
2023-04-15T19:09:27.256Z,9.46
2023-04-15T19:11:56.807Z,9.41
2023-04-15T19:14:26.392Z,9.45
2023-04-15T19:16:54.615Z,9.36
2023-04-15T19:19:22.788Z,9.40
2023-04-15T19:21:51.238Z,9.42
2023-04-15T19:24:20.016Z,9.39
2023-04-15T19:26:50.064Z,9.36
2023-04-15T19:29:18.645Z,9.37
2023-04-15T19:31:48.228Z,9.34
2023-04-15T19:34:16.589Z,9.36
2023-04-15T19:36:44.793Z,9.35
2023-04-15T19:39:13.564Z,9.39
2023-04-15T19:41:41.851Z,9.42
2023-04-15T19:44:12.729Z,9.37
2023-04-15T19:46:41.058Z,9.41
2023-04-15T19:49:10.798Z,9.38
2023-04-15T19:51:38.951Z,9.44
2023-04-15T19:54:07.121Z,9.32
2023-04-15T19:56:35.408Z,9.41
2023-04-15T19:59:03.891Z,9.38
2023-04-15T20:01:32.882Z,9.35
2023-04-15T20:04:03.438Z,9.29
2023-04-15T20:06:33.074Z,9.34
2023-04-15T20:09:02.026Z,9.28
2023-04-15T20:12:46.256Z,9.28
2023-04-15T20:14:18.519Z,9.24
2023-04-15T20:16:46.748Z,9.27
2023-04-15T20:19:14.873Z,9.29
2023-04-15T20:21:44.461Z,9.21
2023-04-15T20:24:12.696Z,9.33
2023-04-15T20:26:40.823Z,9.28
2023-04-15T20:29:09.029Z,9.23
2023-04-15T20:31:37.452Z,9.24
2023-04-15T20:34:05.767Z,9.24
2023-04-15T20:36:34.303Z,9.31
2023-04-15T20:39:04.162Z,9.22
2023-04-15T20:41:32.589Z,9.17
2023-04-15T20:44:00.738Z,9.14
2023-04-15T20:46:29.111Z,9.27
2023-04-15T20:48:57.270Z,9.29
2023-04-15T20:51:27.148Z,9.23
2023-04-15T20:53:55.567Z,9.23
2023-04-15T20:56:25.112Z,9.20
2023-04-15T20:58:53.370Z,9.29
2023-04-15T21:01:21.632Z,9.33
2023-04-15T21:03:49.996Z,9.24
2023-04-15T21:06:18.239Z,9.17
2023-04-15T21:08:46.386Z,9.14
2023-04-15T21:11:25.679Z,9.22
2023-04-15T21:14:07.671Z,9.25
2023-04-15T21:16:35.903Z,9.13
2023-04-15T21:19:04.516Z,9.26
2023-04-15T21:21:32.936Z,9.23
2023-04-15T21:24:01.178Z,9.20
2023-04-15T21:26:29.326Z,9.25
2023-04-15T21:28:57.566Z,9.22
2023-04-15T21:31:27.058Z,9.20
2023-04-15T21:33:55.210Z,9.20
2023-04-15T21:36:23.470Z,9.21
2023-04-15T21:38:51.751Z,9.24
2023-04-15T21:41:19.989Z,9.15
2023-04-15T21:43:48.154Z,9.15
2023-04-15T21:46:20.847Z,9.18
2023-04-15T21:48:54.834Z,9.20
2023-04-15T21:51:23.001Z,9.15
2023-04-15T21:53:52.547Z,9.15
2023-04-15T21:56:23.145Z,9.20
2023-04-15T21:58:52.079Z,9.22
2023-04-15T22:01:20.216Z,9.13
2023-04-15T22:03:48.616Z,9.19
2023-04-15T22:06:18.361Z,9.23
2023-04-15T22:08:56.251Z,9.05
2023-04-15T22:11:28.229Z,9.09
2023-04-15T22:13:57.635Z,9.12
2023-04-15T22:16:26.680Z,9.04
2023-04-15T22:18:55.243Z,9.06
2023-04-15T22:21:24.963Z,9.13
2023-04-15T22:24:37.274Z,9.15
2023-04-15T22:26:42.761Z,9.14
2023-04-15T22:29:11.099Z,8.98
2023-04-15T22:31:39.311Z,9.09
2023-04-15T22:34:08.079Z,9.21
2023-04-15T22:36:37.783Z,9.04
2023-04-15T22:39:06.273Z,9.05
2023-04-15T22:41:34.824Z,9.14
2023-04-15T22:44:02.939Z,9.07
2023-04-15T22:46:31.256Z,9.04
2023-04-15T22:48:59.500Z,9.10
2023-04-15T22:51:28.086Z,9.15
2023-04-15T22:53:57.622Z,9.09
2023-04-15T22:56:26.111Z,9.08
2023-04-15T22:58:54.359Z,8.99
2023-04-15T23:01:22.527Z,9.10
2023-04-15T23:03:55.877Z,9.04
2023-04-15T23:06:25.880Z,9.14
2023-04-15T23:08:54.606Z,9.20
2023-04-15T23:11:24.096Z,8.96
2023-04-15T23:13:53.059Z,9.08
2023-04-15T23:16:21.270Z,9.12
2023-04-15T23:18:49.547Z,9.07
2023-04-15T23:21:17.960Z,9.11
2023-04-15T23:23:46.085Z,9.22
2023-04-15T23:26:14.319Z,9.15
2023-04-15T23:28:43.810Z,9.07
2023-04-15T23:31:12.142Z,9.21
2023-04-15T23:33:40.389Z,9.20
2023-04-15T23:36:08.732Z,9.20
2023-04-15T23:38:37.247Z,9.27
2023-04-15T23:41:05.602Z,9.15
2023-04-15T23:43:33.796Z,9.27
2023-04-15T23:46:03.314Z,9.35
2023-04-15T23:48:32.656Z,9.25
2023-04-15T23:51:01.619Z,9.08
2023-04-15T23:53:30.888Z,9.02
2023-04-15T23:55:58.996Z,9.07
2023-04-15T23:58:27.128Z,8.98
